createdAt,value
2018-09-15T00:00:51.893Z,994.78
2018-09-15T00:01:52.032Z,994.77
2018-09-15T00:02:52.165Z,994.81
2018-09-15T00:03:52.297Z,994.80
2018-09-15T00:04:52.460Z,994.85
2018-09-15T00:05:52.585Z,994.84
2018-09-15T00:06:52.719Z,994.86
2018-09-15T00:07:52.854Z,994.88
2018-09-15T00:08:53.019Z,994.87
2018-09-15T00:09:53.147Z,994.84
2018-09-15T00:10:53.283Z,994.85
2018-09-15T00:11:53.422Z,994.83
2018-09-15T00:12:53.563Z,994.82
2018-09-15T00:13:53.693Z,994.80
2018-09-15T00:14:53.838Z,994.82
2018-09-15T00:15:53.984Z,994.85
2018-09-15T00:16:54.123Z,994.86
2018-09-15T00:17:54.262Z,994.88
2018-09-15T00:18:54.405Z,994.89
2018-09-15T00:19:54.586Z,994.88
2018-09-15T00:20:54.705Z,994.92
2018-09-15T00:21:54.852Z,994.92
2018-09-15T00:22:55.059Z,994.89
2018-09-15T00:23:55.142Z,994.89
2018-09-15T00:24:55.282Z,994.91
2018-09-15T00:25:55.420Z,994.90
2018-09-15T00:26:55.581Z,994.87
2018-09-15T00:27:55.715Z,994.82
2018-09-15T00:28:56.347Z,994.81
2018-09-15T00:29:55.996Z,994.83
2018-09-15T00:30:56.132Z,994.82
2018-09-15T00:31:56.272Z,994.78
2018-09-15T00:32:56.458Z,994.76
2018-09-15T00:33:56.564Z,994.76
2018-09-15T00:34:56.708Z,994.80
2018-09-15T00:35:56.844Z,994.83
2018-09-15T00:36:56.978Z,994.79
2018-09-15T00:37:57.130Z,994.77
2018-09-15T00:38:57.316Z,994.78
2018-09-15T00:39:57.399Z,994.79
2018-09-15T00:40:57.534Z,994.79
2018-09-15T00:41:57.672Z,994.78
2018-09-15T00:42:57.803Z,994.77
2018-09-15T00:43:57.939Z,994.77
2018-09-15T00:44:58.086Z,994.77
2018-09-15T00:45:58.220Z,994.79
2018-09-15T00:46:58.357Z,994.79
2018-09-15T00:47:58.499Z,994.76
2018-09-15T00:48:59.538Z,994.79
2018-09-15T00:51:31.481Z,994.80
2018-09-15T00:52:31.621Z,994.79
2018-09-15T00:53:31.755Z,994.79
2018-09-15T00:54:31.881Z,994.78
2018-09-15T00:55:32.016Z,994.82
2018-09-15T00:56:32.153Z,994.80
2018-09-15T00:57:32.307Z,994.86
2018-09-15T00:58:32.443Z,994.86
2018-09-15T00:59:32.583Z,994.88
2018-09-15T01:00:32.724Z,994.86
2018-09-15T01:01:32.856Z,994.87
2018-09-15T01:02:32.993Z,994.88
2018-09-15T01:03:33.137Z,994.87
2018-09-15T01:04:33.289Z,994.89
2018-09-15T01:05:33.420Z,994.91
2018-09-15T01:06:33.556Z,994.91
2018-09-15T01:07:33.709Z,994.93
2018-09-15T01:08:33.848Z,994.93
2018-09-15T01:09:33.981Z,994.94
2018-09-15T01:10:34.150Z,994.94
2018-09-15T01:11:34.280Z,994.93
2018-09-15T01:12:34.415Z,994.92
2018-09-15T01:13:35.356Z,994.92
2018-09-15T01:14:34.700Z,994.93
2018-09-15T01:15:34.834Z,994.94
2018-09-15T01:16:34.974Z,994.96
2018-09-15T01:17:35.152Z,994.92
2018-09-15T01:18:35.273Z,994.95
2018-09-15T01:19:35.413Z,994.94
2018-09-15T01:20:35.559Z,994.94
2018-09-15T01:21:35.693Z,994.98
2018-09-15T01:22:35.828Z,994.94
2018-09-15T01:23:35.980Z,994.96
2018-09-15T01:24:36.115Z,995.01
2018-09-15T01:25:36.272Z,994.97
2018-09-15T01:26:36.403Z,994.98
2018-09-15T01:27:36.544Z,994.98
2018-09-15T01:28:36.703Z,994.97
2018-09-15T01:29:36.826Z,994.93
2018-09-15T01:30:36.962Z,994.92
2018-09-15T01:31:37.101Z,994.92
2018-09-15T01:32:37.266Z,994.90
2018-09-15T01:33:37.401Z,994.88
2018-09-15T01:34:37.535Z,994.94
2018-09-15T01:35:37.702Z,994.98
2018-09-15T01:36:37.865Z,994.96
2018-09-15T01:37:38.006Z,994.98
2018-09-15T01:38:38.142Z,994.99
2018-09-15T01:39:38.280Z,995.00
2018-09-15T01:40:39.210Z,995.01
2018-09-15T01:43:10.784Z,995.00
2018-09-15T01:44:10.794Z,995.06
2018-09-15T01:45:10.936Z,995.03
2018-09-15T01:46:11.077Z,995.05
2018-09-15T01:47:11.209Z,995.05
2018-09-15T01:48:11.344Z,995.04
2018-09-15T01:49:11.481Z,995.05
2018-09-15T01:50:11.613Z,995.03
2018-09-15T01:51:11.752Z,995.06
2018-09-15T01:52:11.888Z,995.07
2018-09-15T01:53:12.028Z,995.07
2018-09-15T01:54:12.161Z,995.07
2018-09-15T01:55:12.301Z,995.05
2018-09-15T01:56:12.427Z,995.08
2018-09-15T01:57:12.563Z,995.04
2018-09-15T01:58:12.706Z,995.06
2018-09-15T01:59:12.851Z,995.09
2018-09-15T02:00:12.994Z,995.10
2018-09-15T02:01:13.122Z,995.08
2018-09-15T02:02:13.267Z,995.11
2018-09-15T02:03:13.405Z,995.08
2018-09-15T02:04:13.541Z,995.09
2018-09-15T02:05:13.673Z,995.10
2018-09-15T02:06:13.806Z,995.11
2018-09-15T02:07:13.945Z,995.10
2018-09-15T02:08:14.079Z,995.10
2018-09-15T02:09:14.213Z,995.07
2018-09-15T02:10:14.356Z,995.08
2018-09-15T02:11:14.510Z,995.03
2018-09-15T02:12:15.105Z,995.06
2018-09-15T02:13:14.801Z,995.05
2018-09-15T02:14:14.933Z,995.05
2018-09-15T02:15:15.077Z,995.04
2018-09-15T02:16:15.233Z,995.09
2018-09-15T02:17:15.354Z,995.10
2018-09-15T02:18:15.494Z,995.09
2018-09-15T02:19:15.662Z,995.12
2018-09-15T02:20:15.788Z,995.12
2018-09-15T02:21:15.929Z,995.13
2018-09-15T02:22:16.066Z,995.14
2018-09-15T02:23:16.220Z,995.16
2018-09-15T02:24:16.360Z,995.10
2018-09-15T02:25:16.499Z,995.12
2018-09-15T02:26:16.635Z,995.07
2018-09-15T02:27:16.793Z,995.13
2018-09-15T02:28:16.928Z,995.10
2018-09-15T02:29:17.642Z,995.13
2018-09-15T02:31:49.854Z,995.17
2018-09-15T02:32:50.016Z,995.18
2018-09-15T02:33:50.135Z,995.22
2018-09-15T02:34:50.272Z,995.25
2018-09-15T02:35:50.409Z,995.27
2018-09-15T02:36:50.571Z,995.27
2018-09-15T02:37:50.702Z,995.31
2018-09-15T02:38:50.845Z,995.32
2018-09-15T02:39:50.981Z,995.32
2018-09-15T02:40:51.142Z,995.30
2018-09-15T02:41:51.267Z,995.34
2018-09-15T02:42:51.407Z,995.31
2018-09-15T02:43:51.561Z,995.35
2018-09-15T02:44:51.728Z,995.34
2018-09-15T02:45:51.839Z,995.34
2018-09-15T02:46:51.968Z,995.30
2018-09-15T02:47:52.103Z,995.31
2018-09-15T02:48:52.248Z,995.26
2018-09-15T02:49:52.378Z,995.27
2018-09-15T02:50:52.520Z,995.28
2018-09-15T02:51:52.651Z,995.26
2018-09-15T02:52:52.798Z,995.28
2018-09-15T02:53:52.929Z,995.23
2018-09-15T02:54:53.133Z,995.27
2018-09-15T02:55:53.214Z,995.25
2018-09-15T02:56:53.348Z,995.25
2018-09-15T02:57:53.968Z,995.28
2018-09-15T02:58:53.637Z,995.31
2018-09-15T02:59:53.771Z,995.33
2018-09-15T03:00:53.906Z,995.31
2018-09-15T03:01:54.041Z,995.30
2018-09-15T03:02:54.183Z,995.33
2018-09-15T03:03:54.313Z,995.34
2018-09-15T03:04:54.486Z,995.36
2018-09-15T03:05:54.586Z,995.40
2018-09-15T03:06:54.719Z,995.40
2018-09-15T03:07:54.854Z,995.43
2018-09-15T03:08:54.992Z,995.47
2018-09-15T03:09:55.121Z,995.42
2018-09-15T03:10:55.295Z,995.43
2018-09-15T03:11:55.401Z,995.42
2018-09-15T03:12:55.539Z,995.48
2018-09-15T03:13:55.664Z,995.39
2018-09-15T03:14:55.803Z,995.39
2018-09-15T03:15:55.933Z,995.43
2018-09-15T03:16:56.077Z,995.45
2018-09-15T03:17:56.213Z,995.46
2018-09-15T03:18:56.348Z,995.44
2018-09-15T03:19:56.484Z,995.44
2018-09-15T03:20:57.470Z,995.42
2018-09-15T03:21:56.786Z,995.45
2018-09-15T03:22:56.923Z,995.42
2018-09-15T03:23:57.082Z,995.44
2018-09-15T03:24:57.203Z,995.46
2018-09-15T03:25:57.334Z,995.43
2018-09-15T03:26:57.473Z,995.44
2018-09-15T03:27:57.628Z,995.47
2018-09-15T03:28:57.769Z,995.46
2018-09-15T03:29:57.899Z,995.47
2018-09-15T03:30:58.037Z,995.50
2018-09-15T03:31:58.177Z,995.47
2018-09-15T03:32:58.311Z,995.48
2018-09-15T03:33:58.451Z,995.50
2018-09-15T03:34:58.595Z,995.51
2018-09-15T03:35:58.751Z,995.45
2018-09-15T03:36:58.887Z,995.46
2018-09-15T03:37:59.024Z,995.48
2018-09-15T03:38:59.159Z,995.50
2018-09-15T03:39:59.295Z,995.48
2018-09-15T03:40:59.426Z,995.50
2018-09-15T03:41:59.668Z,995.50
2018-09-15T03:42:59.718Z,995.52
2018-09-15T03:43:59.849Z,995.49
2018-09-15T03:44:59.994Z,995.49
2018-09-15T03:46:00.115Z,995.51
2018-09-15T03:47:00.249Z,995.52
2018-09-15T03:48:00.386Z,995.52
2018-09-15T03:49:00.520Z,995.53
2018-09-15T03:50:00.679Z,995.52
2018-09-15T03:51:00.811Z,995.58
2018-09-15T03:52:00.942Z,995.56
2018-09-15T03:53:01.089Z,995.55
2018-09-15T03:54:01.248Z,995.56
2018-09-15T03:55:01.381Z,995.57
2018-09-15T03:56:01.536Z,995.54
2018-09-15T03:57:01.675Z,995.55
2018-09-15T03:58:01.803Z,995.52
2018-09-15T03:59:01.954Z,995.58
2018-09-15T04:00:02.142Z,995.61
2018-09-15T04:01:02.228Z,995.58
2018-09-15T04:02:02.367Z,995.60
2018-09-15T04:03:02.502Z,995.62
2018-09-15T04:04:02.643Z,995.64
2018-09-15T04:05:02.776Z,995.61
2018-09-15T04:06:02.912Z,995.67
2018-09-15T04:07:03.047Z,995.61
2018-09-15T04:08:03.194Z,995.64
2018-09-15T04:09:03.328Z,995.64
2018-09-15T04:10:03.466Z,995.65
2018-09-15T04:11:03.602Z,995.64
2018-09-15T04:12:03.740Z,995.65
2018-09-15T04:13:03.876Z,995.69
2018-09-15T04:14:04.014Z,995.69
2018-09-15T04:15:04.161Z,995.67
2018-09-15T04:16:04.294Z,995.72
2018-09-15T04:17:04.429Z,995.68
2018-09-15T04:18:04.571Z,995.67
2018-09-15T04:19:04.703Z,995.69
2018-09-15T04:20:04.831Z,995.72
2018-09-15T04:21:04.964Z,995.73
2018-09-15T04:22:05.120Z,995.75
2018-09-15T04:23:05.257Z,995.80
2018-09-15T04:24:05.426Z,995.80
2018-09-15T04:25:05.540Z,995.78
2018-09-15T04:26:05.676Z,995.79
2018-09-15T04:27:05.812Z,995.84
2018-09-15T04:28:06.004Z,995.85
2018-09-15T04:29:06.088Z,995.86
2018-09-15T04:30:06.223Z,995.87
2018-09-15T04:31:06.361Z,995.89
2018-09-15T04:32:06.495Z,995.89
2018-09-15T04:33:06.637Z,995.88
2018-09-15T04:34:06.770Z,995.90
2018-09-15T04:35:06.907Z,995.94
2018-09-15T04:36:07.067Z,995.92
2018-09-15T04:37:07.199Z,995.92
2018-09-15T04:38:07.336Z,995.91
2018-09-15T04:39:07.509Z,995.85
2018-09-15T04:40:07.652Z,995.90
2018-09-15T04:41:07.782Z,995.87
2018-09-15T04:42:07.924Z,995.90
2018-09-15T04:43:08.074Z,995.91
2018-09-15T04:44:08.206Z,995.89
2018-09-15T04:45:08.349Z,995.92
2018-09-15T04:46:08.483Z,995.87
2018-09-15T04:47:08.638Z,995.91
2018-09-15T04:48:08.773Z,995.93
2018-09-15T04:49:08.911Z,995.93
2018-09-15T04:50:09.069Z,995.94
2018-09-15T04:51:09.190Z,995.98
2018-09-15T04:52:09.321Z,995.99
2018-09-15T04:53:09.479Z,995.97
2018-09-15T04:54:09.610Z,996.00
2018-09-15T04:55:09.766Z,995.97
2018-09-15T04:56:09.889Z,995.96
2018-09-15T04:57:10.021Z,995.99
2018-09-15T04:58:10.175Z,995.99
2018-09-15T04:59:10.312Z,996.05
2018-09-15T05:00:10.436Z,996.06
2018-09-15T05:01:11.080Z,996.12
2018-09-15T05:02:10.743Z,996.13
2018-09-15T05:03:10.871Z,996.17
2018-09-15T05:04:11.584Z,996.21
2018-09-15T05:05:11.200Z,996.18
2018-09-15T05:06:11.341Z,996.24
2018-09-15T05:07:11.480Z,996.27
2018-09-15T05:08:11.614Z,996.25
2018-09-15T05:09:11.749Z,996.24
2018-09-15T05:10:11.881Z,996.25
2018-09-15T05:11:12.022Z,996.22
2018-09-15T05:12:12.186Z,996.27
2018-09-15T05:13:12.316Z,996.25
2018-09-15T05:14:12.453Z,996.29
2018-09-15T05:15:12.594Z,996.29
2018-09-15T05:16:12.753Z,996.35
2018-09-15T05:17:12.891Z,996.31
2018-09-15T05:18:13.033Z,996.32
2018-09-15T05:19:14.111Z,996.36
2018-09-15T05:20:13.278Z,996.36
2018-09-15T05:21:13.416Z,996.41
2018-09-15T05:22:13.544Z,996.36
2018-09-15T05:23:13.701Z,996.38
2018-09-15T05:24:13.837Z,996.42
2018-09-15T05:25:13.975Z,996.40
2018-09-15T05:26:14.118Z,996.41
2018-09-15T05:27:14.321Z,996.38
2018-09-15T05:28:14.401Z,996.36
2018-09-15T05:29:14.538Z,996.36
2018-09-15T05:30:14.673Z,996.37
2018-09-15T05:31:14.810Z,996.33
2018-09-15T05:32:14.950Z,996.37
2018-09-15T05:33:15.092Z,996.37
2018-09-15T05:34:15.232Z,996.34
2018-09-15T05:35:15.371Z,996.37
2018-09-15T05:36:15.505Z,996.39
2018-09-15T05:37:15.642Z,996.35
2018-09-15T05:38:15.771Z,996.39
2018-09-15T05:39:15.908Z,996.39
2018-09-15T05:40:16.045Z,996.35
2018-09-15T05:41:16.174Z,996.40
2018-09-15T05:42:16.313Z,996.44
2018-09-15T05:43:16.448Z,996.42
2018-09-15T05:44:16.580Z,996.43
2018-09-15T05:45:16.719Z,996.44
2018-09-15T05:46:16.851Z,996.49
2018-09-15T05:47:16.992Z,996.46
2018-09-15T05:48:17.119Z,996.47
2018-09-15T05:49:17.841Z,996.49
2018-09-15T05:51:49.554Z,996.50
2018-09-15T05:52:49.689Z,996.52
2018-09-15T05:53:49.824Z,996.54
2018-09-15T05:54:49.966Z,996.54
2018-09-15T05:55:50.102Z,996.55
2018-09-15T05:56:50.238Z,996.56
2018-09-15T05:57:50.376Z,996.55
2018-09-15T05:58:50.514Z,996.53
2018-09-15T05:59:50.665Z,996.55
2018-09-15T06:00:50.794Z,996.57
2018-09-15T06:01:51.004Z,996.53
2018-09-15T06:02:51.064Z,996.56
2018-09-15T06:03:51.223Z,996.57
2018-09-15T06:04:51.358Z,996.56
2018-09-15T06:05:51.492Z,996.56
2018-09-15T06:06:51.675Z,996.58
2018-09-15T06:07:51.777Z,996.59
2018-09-15T06:08:51.915Z,996.53
2018-09-15T06:09:52.045Z,996.59
2018-09-15T06:10:52.242Z,996.63
2018-09-15T06:11:52.333Z,996.63
2018-09-15T06:12:52.469Z,996.64
2018-09-15T06:13:52.663Z,996.65
2018-09-15T06:14:52.794Z,996.66
2018-09-15T06:15:52.903Z,996.67
2018-09-15T06:16:53.038Z,996.68
2018-09-15T06:17:53.172Z,996.69
2018-09-15T06:18:53.314Z,996.74
2018-09-15T06:19:53.453Z,996.74
2018-09-15T06:20:53.638Z,996.76
2018-09-15T06:21:53.749Z,996.82
2018-09-15T06:22:53.886Z,996.79
2018-09-15T06:23:54.016Z,996.86
2018-09-15T06:24:54.164Z,996.85
2018-09-15T06:25:54.286Z,996.90
2018-09-15T06:26:54.433Z,996.92
2018-09-15T06:27:54.601Z,996.91
2018-09-15T06:28:54.728Z,996.87
2018-09-15T06:29:54.864Z,996.85
2018-09-15T06:30:55.052Z,996.89
2018-09-15T06:31:55.655Z,996.88
2018-09-15T06:32:55.279Z,996.89
2018-09-15T06:33:55.486Z,996.95
2018-09-15T06:34:55.603Z,996.94
2018-09-15T06:35:55.735Z,996.98
2018-09-15T06:36:55.879Z,997.01
2018-09-15T06:37:56.010Z,997.00
2018-09-15T06:38:56.151Z,997.00
2018-09-15T06:39:56.292Z,997.00
2018-09-15T06:40:56.424Z,996.99
2018-09-15T06:41:56.573Z,996.93
2018-09-15T06:42:56.705Z,996.95
2018-09-15T06:43:56.910Z,996.94
2018-09-15T06:44:56.931Z,996.94
2018-09-15T06:45:57.060Z,996.94
2018-09-15T06:46:57.206Z,996.96
2018-09-15T06:47:57.342Z,996.94
2018-09-15T06:48:57.473Z,997.01
2018-09-15T06:49:57.609Z,997.05
2018-09-15T06:50:57.739Z,997.07
2018-09-15T06:51:57.895Z,997.04
2018-09-15T06:52:58.033Z,997.09
2018-09-15T06:53:58.166Z,997.09
2018-09-15T06:54:58.318Z,997.11
2018-09-15T06:55:58.457Z,997.12
2018-09-15T06:56:58.584Z,997.16
2018-09-15T06:57:58.722Z,997.17
2018-09-15T06:58:58.870Z,997.14
2018-09-15T06:59:58.995Z,997.15
2018-09-15T07:00:59.191Z,997.21
2018-09-15T07:01:59.267Z,997.18
2018-09-15T07:02:59.405Z,997.24
2018-09-15T07:03:59.583Z,997.24
2018-09-15T07:04:59.742Z,997.26
2018-09-15T07:05:59.877Z,997.29
2018-09-15T07:07:00.049Z,997.26
2018-09-15T07:08:00.158Z,997.30
2018-09-15T07:09:00.294Z,997.27
2018-09-15T07:10:00.438Z,997.32
2018-09-15T07:11:00.568Z,997.32
2018-09-15T07:12:00.754Z,997.33
2018-09-15T07:13:00.928Z,997.33
2018-09-15T07:14:01.031Z,997.33
2018-09-15T07:15:01.682Z,997.32
2018-09-15T07:17:33.965Z,997.27
2018-09-15T07:18:34.082Z,997.27
2018-09-15T07:19:34.222Z,997.26
2018-09-15T07:20:34.613Z,997.27
2018-09-15T07:21:34.528Z,997.29
2018-09-15T07:22:34.670Z,997.27
2018-09-15T07:23:34.853Z,997.30
2018-09-15T07:24:34.996Z,997.33
2018-09-15T07:25:35.149Z,997.34
2018-09-15T07:26:35.330Z,997.34
2018-09-15T07:27:35.466Z,997.30
2018-09-15T07:28:35.603Z,997.33
2018-09-15T07:29:35.774Z,997.35
2018-09-15T07:30:35.911Z,997.33
2018-09-15T07:31:36.162Z,997.38
2018-09-15T07:32:36.213Z,997.43
2018-09-15T07:33:36.345Z,997.39
2018-09-15T07:34:36.484Z,997.46
2018-09-15T07:35:36.641Z,997.43
2018-09-15T07:36:36.778Z,997.42
2018-09-15T07:37:36.973Z,997.45
2018-09-15T07:38:37.117Z,997.42
2018-09-15T07:39:37.139Z,997.46
2018-09-15T07:40:37.271Z,997.42
2018-09-15T07:41:37.462Z,997.44
2018-09-15T07:42:37.516Z,997.43
2018-09-15T07:43:37.654Z,997.45
2018-09-15T07:44:37.817Z,997.43
2018-09-15T07:45:37.934Z,997.44
2018-09-15T07:46:38.071Z,997.45
2018-09-15T07:47:38.217Z,997.43
2018-09-15T07:48:38.380Z,997.46
2018-09-15T07:49:38.513Z,997.44
2018-09-15T07:50:38.650Z,997.50
2018-09-15T07:51:38.794Z,997.51
2018-09-15T07:52:38.922Z,997.51
2018-09-15T07:53:39.062Z,997.54
2018-09-15T07:54:39.197Z,997.56
2018-09-15T07:55:39.346Z,997.59
2018-09-15T07:56:39.507Z,997.58
2018-09-15T07:57:39.706Z,997.59
2018-09-15T07:58:39.763Z,997.67
2018-09-15T07:59:39.896Z,997.63
2018-09-15T08:00:40.032Z,997.62
2018-09-15T08:01:40.166Z,997.64
2018-09-15T08:02:40.309Z,997.64
2018-09-15T08:03:40.440Z,997.62
2018-09-15T08:04:40.576Z,997.61
2018-09-15T08:05:40.710Z,997.57
2018-09-15T08:06:40.842Z,997.58
2018-09-15T08:07:40.984Z,997.58
2018-09-15T08:08:41.121Z,997.61
2018-09-15T08:09:41.256Z,997.55
2018-09-15T08:10:41.389Z,997.57
2018-09-15T08:11:41.527Z,997.58
2018-09-15T08:12:41.659Z,997.58
2018-09-15T08:13:41.793Z,997.59
2018-09-15T08:14:41.936Z,997.56
2018-09-15T08:15:42.884Z,997.60
2018-09-15T08:16:42.175Z,997.54
2018-09-15T08:17:42.316Z,997.54
2018-09-15T08:18:42.448Z,997.53
2018-09-15T08:19:42.583Z,997.52
2018-09-15T08:20:42.795Z,997.55
2018-09-15T08:21:42.872Z,997.58
2018-09-15T08:22:43.018Z,997.65
2018-09-15T08:23:43.888Z,997.63
2018-09-15T08:26:15.212Z,997.65
2018-09-15T08:27:15.304Z,997.56
2018-09-15T08:28:15.445Z,997.58
2018-09-15T08:29:15.587Z,997.59
2018-09-15T08:30:15.714Z,997.56
2018-09-15T08:31:15.848Z,997.57
2018-09-15T08:32:15.989Z,997.61
2018-09-15T08:33:16.149Z,997.61
2018-09-15T08:34:16.286Z,997.57
2018-09-15T08:35:16.419Z,997.69
2018-09-15T08:36:16.554Z,997.65
2018-09-15T08:37:16.750Z,997.60
2018-09-15T08:38:16.873Z,997.64
2018-09-15T08:39:16.984Z,997.62
2018-09-15T08:40:17.130Z,997.66
2018-09-15T08:41:17.322Z,997.70
2018-09-15T08:42:17.429Z,997.66
2018-09-15T08:43:17.567Z,997.65
2018-09-15T08:44:17.739Z,997.63
2018-09-15T08:45:17.875Z,997.65
2018-09-15T08:46:18.006Z,997.67
2018-09-15T08:47:18.140Z,997.66
2018-09-15T08:48:18.338Z,997.62
2018-09-15T08:49:18.458Z,997.62
2018-09-15T08:50:18.592Z,997.58
2018-09-15T08:51:18.736Z,997.59
2018-09-15T08:52:18.868Z,997.57
2018-09-15T08:53:19.016Z,997.61
2018-09-15T08:54:19.165Z,997.62
2018-09-15T08:55:19.307Z,997.60
2018-09-15T08:56:19.472Z,997.66
2018-09-15T08:57:19.584Z,997.64
2018-09-15T08:58:19.722Z,997.62
2018-09-15T08:59:19.851Z,997.65
2018-09-15T09:00:19.999Z,997.55
2018-09-15T09:01:20.162Z,997.62
2018-09-15T09:02:20.303Z,997.55
2018-09-15T09:03:20.434Z,997.54
2018-09-15T09:04:20.575Z,997.55
2018-09-15T09:05:20.731Z,997.55
2018-09-15T09:06:20.868Z,997.58
2018-09-15T09:07:21.006Z,997.63
2018-09-15T09:08:21.132Z,997.60
2018-09-15T09:09:21.277Z,997.63
2018-09-15T09:10:21.434Z,997.65
2018-09-15T09:11:21.596Z,997.70
2018-09-15T09:12:21.726Z,997.67
2018-09-15T09:13:21.861Z,997.61
2018-09-15T09:14:22.001Z,997.64
2018-09-15T09:15:22.151Z,997.63
2018-09-15T09:16:22.284Z,997.60
2018-09-15T09:17:22.417Z,997.63
2018-09-15T09:18:22.555Z,997.56
2018-09-15T09:19:22.727Z,997.59
2018-09-15T09:20:22.853Z,997.62
2018-09-15T09:21:22.988Z,997.66
2018-09-15T09:22:23.123Z,997.64
2018-09-15T09:23:23.371Z,997.66
2018-09-15T09:24:23.369Z,997.72
2018-09-15T09:25:23.509Z,997.73
2018-09-15T09:26:23.744Z,997.74
2018-09-15T09:27:23.812Z,997.69
2018-09-15T09:28:23.956Z,997.73
2018-09-15T09:29:24.100Z,997.69
2018-09-15T09:30:24.248Z,997.74
2018-09-15T09:31:24.381Z,997.69
2018-09-15T09:32:24.556Z,997.64
2018-09-15T09:33:24.679Z,997.65
2018-09-15T09:34:24.811Z,997.64
2018-09-15T09:35:24.949Z,997.64
2018-09-15T09:36:25.089Z,997.66
2018-09-15T09:37:25.263Z,997.69
2018-09-15T09:38:25.432Z,997.62
2018-09-15T09:39:25.506Z,997.67
2018-09-15T09:40:25.646Z,997.68
2018-09-15T09:41:25.832Z,997.65
2018-09-15T09:42:25.929Z,997.62
2018-09-15T09:43:26.070Z,997.61
2018-09-15T09:44:26.221Z,997.69
2018-09-15T09:45:26.345Z,997.68
2018-09-15T09:46:26.488Z,997.60
2018-09-15T09:47:26.621Z,997.64
2018-09-15T09:48:26.762Z,997.61
2018-09-15T09:49:26.902Z,997.57
2018-09-15T09:50:27.046Z,997.59
2018-09-15T09:51:27.184Z,997.60
2018-09-15T09:52:27.325Z,997.57
2018-09-15T09:53:27.465Z,997.64
2018-09-15T09:54:27.615Z,997.59
2018-09-15T09:55:27.755Z,997.59
2018-09-15T09:56:27.891Z,997.56
2018-09-15T09:57:28.038Z,997.57
2018-09-15T09:58:28.176Z,997.56
2018-09-15T09:59:28.323Z,997.57
2018-09-15T10:00:28.460Z,997.59
2018-09-15T10:01:28.602Z,997.63
2018-09-15T10:02:28.746Z,997.60
2018-09-15T10:03:28.895Z,997.69
2018-09-15T10:04:29.036Z,997.71
2018-09-15T10:05:29.173Z,997.67
2018-09-15T10:06:29.318Z,997.73
2018-09-15T10:07:29.463Z,997.69
2018-09-15T10:08:29.610Z,997.64
2018-09-15T10:09:29.753Z,997.67
2018-09-15T10:10:29.949Z,997.68
2018-09-15T10:11:29.967Z,997.74
2018-09-15T10:12:30.107Z,997.64
2018-09-15T10:13:30.241Z,997.64
2018-09-15T10:14:30.383Z,997.59
2018-09-15T10:15:30.519Z,997.67
2018-09-15T10:16:30.658Z,997.65
2018-09-15T10:17:30.796Z,997.63
2018-09-15T10:18:30.940Z,997.61
2018-09-15T10:19:31.087Z,997.61
2018-09-15T10:20:31.227Z,997.54
2018-09-15T10:21:31.381Z,997.55
2018-09-15T10:22:31.508Z,997.58
2018-09-15T10:23:31.657Z,997.50
2018-09-15T10:24:31.788Z,997.49
2018-09-15T10:25:31.933Z,997.44
2018-09-15T10:26:32.073Z,997.44
2018-09-15T10:27:32.214Z,997.38
2018-09-15T10:28:32.346Z,997.43
2018-09-15T10:29:32.507Z,997.44
2018-09-15T10:30:32.637Z,997.40
2018-09-15T10:31:32.789Z,997.43
2018-09-15T10:32:32.930Z,997.45
2018-09-15T10:33:33.068Z,997.45
2018-09-15T10:34:33.214Z,997.51
2018-09-15T10:35:33.354Z,997.45
2018-09-15T10:36:33.502Z,997.47
2018-09-15T10:37:33.649Z,997.46
2018-09-15T10:38:33.836Z,997.50
2018-09-15T10:39:33.934Z,997.41
2018-09-15T10:40:34.136Z,997.49
2018-09-15T10:41:34.243Z,997.47
2018-09-15T10:42:34.374Z,997.49
2018-09-15T10:43:34.514Z,997.43
2018-09-15T10:44:34.673Z,997.56
2018-09-15T10:45:34.810Z,997.44
2018-09-15T10:46:35.009Z,997.42
2018-09-15T10:47:35.112Z,997.46
2018-09-15T10:48:35.251Z,997.46
2018-09-15T10:49:35.388Z,997.45
2018-09-15T10:50:35.529Z,997.42
2018-09-15T10:51:35.700Z,997.47
2018-09-15T10:52:35.841Z,997.45
2018-09-15T10:53:36.008Z,997.46
2018-09-15T10:54:36.140Z,997.50
2018-09-15T10:55:36.282Z,997.42
2018-09-15T10:56:36.415Z,997.44
2018-09-15T10:57:36.574Z,997.40
2018-09-15T10:58:36.712Z,997.45
2018-09-15T10:59:36.850Z,997.46
2018-09-15T11:00:37.043Z,997.43
2018-09-15T11:01:37.130Z,997.49
2018-09-15T11:02:37.275Z,997.45
2018-09-15T11:03:37.453Z,997.57
2018-09-15T11:04:37.629Z,997.48
2018-09-15T11:05:37.749Z,997.49
2018-09-15T11:06:37.889Z,997.52
2018-09-15T11:07:38.029Z,997.48
2018-09-15T11:08:38.188Z,997.59
2018-09-15T11:09:38.327Z,997.53
2018-09-15T11:10:38.465Z,997.52
2018-09-15T11:11:38.611Z,997.56
2018-09-15T11:12:38.747Z,997.51
2018-09-15T11:13:39.025Z,997.52
2018-09-15T11:14:39.022Z,997.52
2018-09-15T11:15:39.164Z,997.52
2018-09-15T11:16:39.315Z,997.55
2018-09-15T11:17:39.452Z,997.55
2018-09-15T11:18:39.606Z,997.48
2018-09-15T11:19:39.745Z,997.49
2018-09-15T11:20:39.903Z,997.50
2018-09-15T11:21:40.050Z,997.49
2018-09-15T11:22:40.196Z,997.45
2018-09-15T11:23:40.334Z,997.49
2018-09-15T11:24:40.497Z,997.52
2018-09-15T11:25:40.674Z,997.57
2018-09-15T11:26:40.810Z,997.54
2018-09-15T11:27:40.953Z,997.53
2018-09-15T11:28:41.180Z,997.58
2018-09-15T11:29:41.246Z,997.57
2018-09-15T11:30:41.388Z,997.57
2018-09-15T11:31:41.524Z,997.56
2018-09-15T11:32:41.688Z,997.60
2018-09-15T11:33:41.816Z,997.59
2018-09-15T11:34:41.958Z,997.64
2018-09-15T11:35:42.097Z,997.65
2018-09-15T11:36:42.242Z,997.63
2018-09-15T11:37:42.393Z,997.65
2018-09-15T11:38:42.526Z,997.64
2018-09-15T11:39:42.672Z,997.66
2018-09-15T11:40:42.836Z,997.58
2018-09-15T11:41:42.969Z,997.61
2018-09-15T11:42:43.109Z,997.64
2018-09-15T11:43:43.303Z,997.59
2018-09-15T11:44:43.401Z,997.60
2018-09-15T11:45:44.486Z,997.55
2018-09-15T11:46:43.653Z,997.55
2018-09-15T11:47:43.798Z,997.58
2018-09-15T11:48:43.931Z,997.54
2018-09-15T11:49:44.072Z,997.54
2018-09-15T11:50:44.212Z,997.67
2018-09-15T11:51:44.392Z,997.55
2018-09-15T11:52:44.518Z,997.62
2018-09-15T11:53:44.704Z,997.56
2018-09-15T11:54:44.794Z,997.52
2018-09-15T11:55:44.938Z,997.52
2018-09-15T11:56:45.092Z,997.51
2018-09-15T11:57:45.227Z,997.60
2018-09-15T11:58:45.377Z,997.63
2018-09-15T11:59:45.514Z,997.75
2018-09-15T12:00:45.660Z,997.55
2018-09-15T12:01:45.799Z,997.51
2018-09-15T12:02:45.940Z,997.53
2018-09-15T12:03:46.082Z,997.54
2018-09-15T12:04:46.216Z,997.51
2018-09-15T12:05:46.357Z,997.52
2018-09-15T12:06:46.501Z,997.58
2018-09-15T12:07:46.688Z,997.67
2018-09-15T12:08:46.787Z,997.60
2018-09-15T12:09:46.927Z,997.61
2018-09-15T12:10:47.064Z,997.68
2018-09-15T12:11:47.209Z,997.71
2018-09-15T12:12:47.352Z,997.73
2018-09-15T12:13:47.489Z,997.79
2018-09-15T12:14:47.636Z,997.71
2018-09-15T12:15:47.780Z,997.69
2018-09-15T12:16:47.914Z,997.65
2018-09-15T12:17:48.059Z,997.55
2018-09-15T12:18:48.198Z,997.55
2018-09-15T12:19:48.344Z,997.53
2018-09-15T12:20:48.493Z,997.56
2018-09-15T12:21:48.757Z,997.57
2018-09-15T12:22:48.783Z,997.50
2018-09-15T12:23:48.922Z,997.50
2018-09-15T12:24:49.067Z,997.50
2018-09-15T12:25:49.207Z,997.50
2018-09-15T12:26:49.351Z,997.50
2018-09-15T12:27:49.514Z,997.56
2018-09-15T12:28:49.658Z,997.53
2018-09-15T12:29:49.804Z,997.60
2018-09-15T12:30:49.945Z,997.42
2018-09-15T12:31:50.086Z,997.46
2018-09-15T12:32:50.249Z,997.47
2018-09-15T12:33:50.999Z,997.58
2018-09-15T12:34:50.549Z,997.68
2018-09-15T12:35:50.700Z,997.51
2018-09-15T12:36:50.844Z,997.51
2018-09-15T12:37:50.984Z,997.47
2018-09-15T12:38:51.121Z,997.62
2018-09-15T12:39:51.285Z,997.58